createdAt,value
2018-11-06T00:00:26.053Z,29.5
2018-11-06T00:01:28.483Z,29.4
2018-11-06T00:02:30.617Z,29.5
2018-11-06T00:03:32.510Z,29.3
2018-11-06T00:04:34.687Z,29.3
2018-11-06T00:05:37.131Z,29.5
2018-11-06T00:06:39.299Z,29.3
2018-11-06T00:07:41.471Z,29.3
2018-11-06T00:08:43.624Z,29.2
2018-11-06T00:09:45.782Z,29.7
2018-11-06T00:10:47.945Z,29.4
2018-11-06T00:11:49.831Z,29.5
2018-11-06T00:12:52.270Z,29.5
2018-11-06T00:13:54.420Z,29.6
2018-11-06T00:14:56.572Z,29.5
2018-11-06T00:15:59.003Z,29.3
2018-11-06T00:17:00.860Z,29.5
2018-11-06T00:18:03.318Z,29.7
2018-11-06T00:19:04.900Z,29.6
2018-11-06T00:20:07.048Z,29.4
2018-11-06T00:21:09.188Z,29.4
2018-11-06T00:22:11.062Z,29.6
2018-11-06T00:23:13.499Z,29.5
2018-11-06T00:24:15.930Z,29.6
2018-11-06T00:25:18.090Z,29.7
2018-11-06T00:26:20.235Z,29.5
2018-11-06T00:27:22.664Z,29.7
2018-11-06T00:28:24.837Z,29.7
2018-11-06T00:29:27.266Z,29.6
2018-11-06T00:30:29.429Z,29.7
2018-11-06T00:31:31.858Z,29.7
2018-11-06T00:32:33.741Z,29.6
2018-11-06T00:33:35.910Z,29.6
2018-11-06T00:34:37.764Z,29.9
2018-11-06T00:35:39.919Z,29.7
2018-11-06T00:36:42.350Z,29.6
2018-11-06T00:37:44.516Z,29.7
2018-11-06T00:38:46.390Z,29.8
2018-11-06T00:39:48.560Z,29.7
2018-11-06T00:40:50.428Z,29.9
2018-11-06T00:41:52.586Z,29.8
2018-11-06T00:42:54.472Z,29.9
2018-11-06T00:43:56.631Z,30
2018-11-06T00:44:58.798Z,30
2018-11-06T00:46:00.663Z,29.6
2018-11-06T00:47:03.100Z,29.7
2018-11-06T00:48:05.253Z,29.7
2018-11-06T00:49:07.694Z,29.8
2018-11-06T00:50:09.837Z,29.7
2018-11-06T00:52:28.790Z,29.9
2018-11-06T00:53:30.416Z,29.8
2018-11-06T00:54:32.866Z,29.9
2018-11-06T00:55:34.730Z,29.9
2018-11-06T00:56:36.893Z,29.7
2018-11-06T00:57:38.774Z,29.7
2018-11-06T00:58:41.034Z,29.8
2018-11-06T00:59:43.450Z,29.6
2018-11-06T01:00:45.590Z,29.8
2018-11-06T01:01:47.748Z,30
2018-11-06T01:02:49.638Z,29.8
2018-11-06T01:03:52.073Z,29.9
2018-11-06T01:04:53.964Z,29.8
2018-11-06T01:05:56.141Z,29.9
2018-11-06T01:06:58.564Z,29.8
2018-11-06T01:08:00.455Z,29.8
2018-11-06T01:09:02.329Z,29.9
2018-11-06T01:10:04.215Z,29.9
2018-11-06T01:11:06.636Z,29.9
2018-11-06T01:12:08.811Z,29.7
2018-11-06T01:13:10.694Z,29.9
2018-11-06T01:14:12.859Z,30.2
2018-11-06T01:15:14.760Z,29.8
2018-11-06T01:16:16.391Z,29.8
2018-11-06T01:17:17.998Z,29.7
2018-11-06T01:18:20.159Z,29.9
2018-11-06T01:19:22.579Z,29.9
2018-11-06T01:20:25.002Z,29.7
2018-11-06T01:21:26.868Z,29.8
2018-11-06T01:22:29.308Z,29.9
2018-11-06T01:23:31.746Z,29.8
2018-11-06T01:24:34.173Z,30
2018-11-06T01:25:36.599Z,30
2018-11-06T01:26:38.479Z,30
2018-11-06T01:27:40.639Z,29.9
2018-11-06T01:28:42.524Z,30.1
2018-11-06T01:29:44.672Z,29.9
2018-11-06T01:30:46.841Z,30
2018-11-06T01:31:48.453Z,29.8
2018-11-06T01:32:50.346Z,30
2018-11-06T01:33:52.491Z,29.9
2018-11-06T01:34:54.368Z,29.9
2018-11-06T01:35:56.260Z,30
2018-11-06T01:36:58.696Z,29.9
2018-11-06T01:38:01.118Z,30
2018-11-06T01:39:03.550Z,29.9
2018-11-06T01:40:05.432Z,30
2018-11-06T01:41:07.590Z,29.9
2018-11-06T01:42:09.209Z,30.1
2018-11-06T01:43:11.636Z,29.8
2018-11-06T01:44:14.064Z,30.1
2018-11-06T01:45:15.674Z,30
2018-11-06T01:46:17.844Z,29.9
2018-11-06T01:47:20.292Z,29.9
2018-11-06T01:48:22.720Z,30.1
2018-11-06T01:49:24.870Z,30
2018-11-06T01:50:27.302Z,30
2018-11-06T01:51:29.730Z,29.9
2018-11-06T01:52:32.160Z,30
2018-11-06T01:53:34.593Z,29.9
2018-11-06T01:54:36.457Z,29.8
2018-11-06T01:55:38.604Z,30.1
2018-11-06T01:56:40.756Z,29.9
2018-11-06T01:57:42.949Z,30
2018-11-06T01:58:44.837Z,30
2018-11-06T01:59:46.982Z,30
2018-11-06T02:00:48.588Z,30
2018-11-06T02:01:51.104Z,29.9
2018-11-06T02:02:53.260Z,30
2018-11-06T02:03:55.697Z,30
2018-11-06T02:06:14.416Z,30
2018-11-06T02:07:16.580Z,30
2018-11-06T02:08:18.436Z,30
2018-11-06T02:09:20.580Z,29.8
2018-11-06T02:10:23.024Z,30
2018-11-06T02:11:25.160Z,30.2
2018-11-06T02:12:27.034Z,30
2018-11-06T02:13:29.194Z,29.9
2018-11-06T02:14:31.359Z,30
2018-11-06T02:15:33.216Z,30.1
2018-11-06T02:16:35.397Z,30
2018-11-06T02:17:36.450Z,29.9
2018-11-06T02:18:38.607Z,30
2018-11-06T02:19:40.761Z,30.1
2018-11-06T02:20:42.688Z,29.9
2018-11-06T02:21:44.832Z,30
2018-11-06T02:22:46.440Z,30
2018-11-06T02:23:48.597Z,30.1
2018-11-06T02:24:51.020Z,30.2
2018-11-06T02:25:53.180Z,30.2
2018-11-06T02:26:55.620Z,30
2018-11-06T02:27:57.784Z,30.1
2018-11-06T02:28:59.646Z,30.1
2018-11-06T02:30:01.804Z,30
2018-11-06T02:31:03.985Z,29.9
2018-11-06T02:32:06.444Z,30.2
2018-11-06T02:33:08.069Z,29.9
2018-11-06T02:34:10.222Z,30
2018-11-06T02:35:12.372Z,30.1
2018-11-06T02:36:14.540Z,30.1
2018-11-06T02:37:16.689Z,30.2
2018-11-06T02:38:18.841Z,30.1
2018-11-06T02:39:20.990Z,30.1
2018-11-06T02:40:23.426Z,30
2018-11-06T02:41:25.858Z,30.1
2018-11-06T02:42:28.293Z,30.1
2018-11-06T02:43:30.435Z,30.1
2018-11-06T02:44:32.855Z,30
2018-11-06T02:45:34.731Z,30.1
2018-11-06T02:46:36.888Z,30
2018-11-06T02:47:39.316Z,30
2018-11-06T02:48:41.471Z,30
2018-11-06T02:49:43.365Z,30
2018-11-06T02:50:45.516Z,30
2018-11-06T02:51:47.660Z,30.1
2018-11-06T02:52:49.540Z,30.1
2018-11-06T02:53:51.981Z,30.2
2018-11-06T02:54:53.843Z,30.2
2018-11-06T02:55:56.053Z,30.1
2018-11-06T02:56:58.366Z,30.1
2018-11-06T02:58:00.798Z,30
2018-11-06T02:59:03.221Z,30
2018-11-06T03:00:05.119Z,29.9
2018-11-06T03:01:07.277Z,29.9
2018-11-06T03:02:09.706Z,30.1
2018-11-06T03:03:11.850Z,30.1
2018-11-06T03:04:13.728Z,30
2018-11-06T03:05:15.590Z,30.1
2018-11-06T03:06:18.034Z,30
2018-11-06T03:07:20.466Z,29.9
2018-11-06T03:08:22.894Z,30
2018-11-06T03:09:25.332Z,30.1
2018-11-06T03:10:27.808Z,30.1
2018-11-06T03:11:30.147Z,30
2018-11-06T03:12:32.010Z,29.9
2018-11-06T03:13:34.164Z,30.1
2018-11-06T03:14:36.051Z,29.8
2018-11-06T03:15:38.479Z,30
2018-11-06T03:16:40.131Z,30.1
2018-11-06T03:17:42.705Z,30.1
2018-11-06T03:18:45.139Z,30
2018-11-06T03:19:47.561Z,30.3
2018-11-06T03:20:49.462Z,30
2018-11-06T03:21:51.608Z,30.1
2018-11-06T03:22:53.490Z,29.9
2018-11-06T03:23:55.910Z,30
2018-11-06T03:24:57.239Z,30
2018-11-06T03:25:59.394Z,30
2018-11-06T03:27:01.371Z,30
2018-11-06T03:28:03.849Z,29.8
2018-11-06T03:29:06.305Z,30.1
2018-11-06T03:30:08.191Z,30
2018-11-06T03:31:10.340Z,30
2018-11-06T03:32:11.941Z,30.2
2018-11-06T03:33:14.369Z,30
2018-11-06T03:34:16.813Z,30.1
2018-11-06T03:35:18.677Z,29.9
2018-11-06T03:36:21.110Z,30
2018-11-06T03:37:23.277Z,30.1
2018-11-06T03:38:25.709Z,30.1
2018-11-06T03:39:27.859Z,30
2018-11-06T03:40:30.302Z,30.2
2018-11-06T03:41:32.453Z,29.9
2018-11-06T03:42:34.618Z,30
2018-11-06T03:43:36.492Z,30
2018-11-06T03:44:38.932Z,30.1
2018-11-06T03:45:41.081Z,30.2
2018-11-06T03:46:42.953Z,30.2
2018-11-06T03:47:44.819Z,30
2018-11-06T03:48:46.670Z,30.1
2018-11-06T03:49:47.970Z,30
2018-11-06T03:50:50.112Z,30
2018-11-06T03:51:52.545Z,30.2
2018-11-06T03:52:54.696Z,30
2018-11-06T03:53:57.453Z,30
2018-11-06T03:54:59.920Z,30
2018-11-06T03:56:02.087Z,30
2018-11-06T03:57:04.515Z,30.1
2018-11-06T03:58:05.829Z,30.1
2018-11-06T03:59:07.723Z,30.1
2018-11-06T04:00:09.857Z,30.3
2018-11-06T04:01:11.728Z,30
2018-11-06T04:02:13.884Z,30.1
2018-11-06T04:03:15.758Z,30.1
2018-11-06T04:04:17.908Z,30
2018-11-06T04:05:20.063Z,30.1
2018-11-06T04:06:21.948Z,30
2018-11-06T04:07:24.368Z,30.1
2018-11-06T04:08:26.510Z,30
2018-11-06T04:09:28.671Z,30
2018-11-06T04:10:31.103Z,30.2
2018-11-06T04:11:33.256Z,30
2018-11-06T04:12:35.419Z,30.1
2018-11-06T04:13:37.845Z,30.1
2018-11-06T04:14:39.981Z,29.9
2018-11-06T04:15:42.161Z,30
2018-11-06T04:16:44.313Z,30
2018-11-06T04:17:46.738Z,30
2018-11-06T04:18:48.899Z,30
2018-11-06T04:19:51.055Z,30.1
2018-11-06T04:20:53.470Z,29.9
2018-11-06T04:21:55.910Z,29.9
2018-11-06T04:22:58.059Z,30
2018-11-06T04:24:00.500Z,30
2018-11-06T04:25:02.932Z,30
2018-11-06T04:26:05.099Z,30.1
2018-11-06T04:27:07.254Z,29.8
2018-11-06T04:28:09.414Z,29.9
2018-11-06T04:29:11.312Z,30.1
2018-11-06T04:30:13.483Z,30.1
2018-11-06T04:31:15.894Z,30
2018-11-06T04:32:18.327Z,29.9
2018-11-06T04:33:20.498Z,29.9
2018-11-06T04:34:22.648Z,30
2018-11-06T04:35:24.793Z,29.9
2018-11-06T04:36:26.952Z,29.8
2018-11-06T04:37:29.396Z,30.1
2018-11-06T04:38:31.878Z,29.7
2018-11-06T04:39:33.761Z,29.8
2018-11-06T04:40:35.637Z,29.8
2018-11-06T04:41:37.517Z,29.9
2018-11-06T04:42:39.955Z,30
2018-11-06T04:43:41.852Z,29.7
2018-11-06T04:44:44.012Z,29.9
2018-11-06T04:45:46.451Z,29.9
2018-11-06T04:46:48.885Z,30
2018-11-06T04:47:51.329Z,29.7
2018-11-06T04:48:53.766Z,29.8
2018-11-06T04:49:56.259Z,29.8
2018-11-06T04:50:58.837Z,29.8
2018-11-06T04:52:01.272Z,29.9
2018-11-06T04:53:03.444Z,29.8
2018-11-06T04:54:05.613Z,29.8
2018-11-06T04:55:07.778Z,29.9
2018-11-06T04:56:09.941Z,29.7
2018-11-06T04:57:11.850Z,29.8
2018-11-06T04:58:14.281Z,29.9
2018-11-06T04:59:16.730Z,29.7
2018-11-06T05:00:18.870Z,29.9
2018-11-06T05:01:21.050Z,29.7
2018-11-06T05:02:23.505Z,29.8
2018-11-06T05:03:25.666Z,29.9
2018-11-06T05:04:27.862Z,29.8
2018-11-06T05:05:29.517Z,29.7
2018-11-06T05:06:31.676Z,29.8
2018-11-06T05:07:33.842Z,29.8
2018-11-06T05:08:35.993Z,29.8
2018-11-06T05:09:38.144Z,29.8
2018-11-06T05:10:40.308Z,29.9
2018-11-06T05:11:42.737Z,29.7
2018-11-06T05:12:44.881Z,29.8
2018-11-06T05:13:47.031Z,29.8
2018-11-06T05:14:49.710Z,29.7
2018-11-06T05:15:52.120Z,29.9
2018-11-06T05:16:54.548Z,29.8
2018-11-06T05:17:56.978Z,29.8
2018-11-06T05:18:59.405Z,29.7
2018-11-06T05:20:01.563Z,29.8
2018-11-06T05:21:04.015Z,29.8
2018-11-06T05:22:06.440Z,29.7
2018-11-06T05:23:08.040Z,29.8
2018-11-06T05:24:10.199Z,29.8
2018-11-06T05:25:12.136Z,29.7
2018-11-06T05:26:14.090Z,29.7
2018-11-06T05:27:16.538Z,29.8
2018-11-06T05:28:18.778Z,29.7
2018-11-06T05:29:21.200Z,29.6
2018-11-06T05:30:23.355Z,29.6
2018-11-06T05:31:25.230Z,29.7
2018-11-06T05:32:27.387Z,29.7
2018-11-06T05:33:29.819Z,29.7
2018-11-06T05:34:31.969Z,29.7
2018-11-06T05:35:34.280Z,29.7
2018-11-06T05:36:36.486Z,29.6
2018-11-06T05:37:38.377Z,29.8
2018-11-06T05:38:40.530Z,29.7
2018-11-06T05:39:42.821Z,29.7
2018-11-06T05:40:45.405Z,29.8
2018-11-06T05:41:47.829Z,29.6
2018-11-06T05:42:50.259Z,29.6
2018-11-06T05:43:52.466Z,29.8
2018-11-06T05:44:54.800Z,29.6
2018-11-06T05:45:57.227Z,29.6
2018-11-06T05:46:59.375Z,29.8
2018-11-06T05:48:01.833Z,29.8
2018-11-06T05:49:03.713Z,29.7
2018-11-06T05:50:05.851Z,29.8
2018-11-06T05:51:08.031Z,29.4
2018-11-06T05:52:10.457Z,29.5
2018-11-06T05:53:12.951Z,29.4
2018-11-06T05:54:15.586Z,29.5
2018-11-06T05:55:17.168Z,29.6
2018-11-06T05:56:19.309Z,29.5
2018-11-06T05:57:21.468Z,29.6
2018-11-06T05:58:23.720Z,29.6
2018-11-06T05:59:26.170Z,29.5
2018-11-06T06:00:28.602Z,29.6
2018-11-06T06:01:31.302Z,29.6
2018-11-06T06:02:33.430Z,29.6
2018-11-06T06:03:35.318Z,29.4
2018-11-06T06:04:37.471Z,29.6
2018-11-06T06:05:39.902Z,29.5
2018-11-06T06:06:41.806Z,29.5
2018-11-06T06:07:43.699Z,29.5
2018-11-06T06:08:46.134Z,29.5
2018-11-06T06:09:48.299Z,29.6
2018-11-06T06:10:50.492Z,29.8
2018-11-06T06:11:52.455Z,29.7
2018-11-06T06:12:54.593Z,29.5
2018-11-06T06:13:56.760Z,29.6
2018-11-06T06:14:59.211Z,29.5
2018-11-06T06:16:01.392Z,29.7
2018-11-06T06:17:03.531Z,29.8
2018-11-06T06:18:05.156Z,29.6
2018-11-06T06:19:07.046Z,29.7
2018-11-06T06:20:09.190Z,29.6
2018-11-06T06:21:11.346Z,29.3
2018-11-06T06:22:13.520Z,29.7
2018-11-06T06:23:15.683Z,29.6
2018-11-06T06:24:17.290Z,29.6
2018-11-06T06:25:19.445Z,29.7
2018-11-06T06:26:21.613Z,29.5
2018-11-06T06:27:23.490Z,29.5
2018-11-06T06:28:25.779Z,29.3
2018-11-06T06:29:28.054Z,29.4
2018-11-06T06:30:29.934Z,29.4
2018-11-06T06:31:32.359Z,29.6
2018-11-06T06:32:34.509Z,29.8
2018-11-06T06:33:36.670Z,29.6
2018-11-06T06:34:38.929Z,29.5
2018-11-06T06:35:42.154Z,29.7
2018-11-06T06:36:44.098Z,29.6
2018-11-06T06:37:45.993Z,29.5
2018-11-06T06:38:48.232Z,29.6
2018-11-06T06:39:51.150Z,29.5
2018-11-06T06:40:53.706Z,29.5
2018-11-06T06:41:56.492Z,29.5
2018-11-06T06:42:58.342Z,29.5
2018-11-06T06:44:00.500Z,29.3
2018-11-06T06:45:02.629Z,29.5
2018-11-06T06:46:04.537Z,29.5
2018-11-06T06:47:07.096Z,29.6
2018-11-06T06:48:09.250Z,29.5
2018-11-06T06:49:11.689Z,29.5
2018-11-06T06:50:14.116Z,29.5
2018-11-06T06:51:16.000Z,29.7
2018-11-06T06:52:18.447Z,29.6
2018-11-06T06:53:20.590Z,29.4
2018-11-06T06:54:23.216Z,29.5
2018-11-06T06:55:26.348Z,29.6
2018-11-06T06:56:28.781Z,29.5
2018-11-06T06:57:30.962Z,29.6
2018-11-06T06:58:32.846Z,29.6
2018-11-06T06:59:35.277Z,29.4
2018-11-06T07:00:37.710Z,29.4
2018-11-06T07:01:39.863Z,29.4
2018-11-06T07:02:42.382Z,29.6
2018-11-06T07:03:44.779Z,29.4
2018-11-06T07:04:47.200Z,29.4
2018-11-06T07:05:49.629Z,29.7
2018-11-06T07:06:52.055Z,29.4
2018-11-06T07:07:54.482Z,29.6
2018-11-06T07:08:56.621Z,29.6
2018-11-06T07:09:58.779Z,29.6
2018-11-06T07:11:00.664Z,29.4
2018-11-06T07:12:02.833Z,29.7
2018-11-06T07:13:04.797Z,29.6
2018-11-06T07:14:07.560Z,29.4
2018-11-06T07:15:09.430Z,29.5
2018-11-06T07:16:11.859Z,29.6
2018-11-06T07:17:14.008Z,29.7
2018-11-06T07:18:16.433Z,29.6
2018-11-06T07:19:18.659Z,29.6
2018-11-06T07:20:21.094Z,29.5
2018-11-06T07:21:23.238Z,29.8
2018-11-06T07:22:25.665Z,29.7
2018-11-06T07:23:27.812Z,29.5
2018-11-06T07:24:29.972Z,29.5
2018-11-06T07:25:31.831Z,29.6
2018-11-06T07:26:33.709Z,29.5
2018-11-06T07:27:36.139Z,29.6
2018-11-06T07:28:38.303Z,29.6
2018-11-06T07:29:40.986Z,29.8
2018-11-06T07:30:42.870Z,29.3
2018-11-06T07:31:45.299Z,29.6
2018-11-06T07:32:47.469Z,29.5
2018-11-06T07:33:49.890Z,29.7
2018-11-06T07:34:52.189Z,29.4
2018-11-06T07:35:55.920Z,29.8
2018-11-06T07:36:58.570Z,29.7
2018-11-06T07:38:00.420Z,29.7
2018-11-06T07:39:02.578Z,29.7
2018-11-06T07:40:04.444Z,29.7
2018-11-06T07:41:06.978Z,29.6
2018-11-06T07:42:10.020Z,29.6
2018-11-06T07:43:12.185Z,29.6
2018-11-06T07:44:14.608Z,29.6
2018-11-06T07:45:17.049Z,29.6
2018-11-06T07:46:19.198Z,29.6
2018-11-06T07:47:21.059Z,29.6
2018-11-06T07:48:22.926Z,29.6
2018-11-06T07:49:25.359Z,29.5
2018-11-06T07:50:27.365Z,29.4
2018-11-06T07:51:30.349Z,29.4
2018-11-06T07:52:32.500Z,29.6
2018-11-06T07:53:34.702Z,29.4
2018-11-06T07:54:36.933Z,29.5
2018-11-06T07:55:38.876Z,29.6
2018-11-06T07:56:41.486Z,29.6
2018-11-06T07:57:43.338Z,29.5
2018-11-06T07:58:45.216Z,29.6
2018-11-06T07:59:47.361Z,29.5
2018-11-06T08:00:49.810Z,29.6
2018-11-06T08:01:51.972Z,29.6
2018-11-06T08:02:53.851Z,29.5
2018-11-06T08:03:55.988Z,29.5
2018-11-06T08:04:58.228Z,29.6
2018-11-06T08:05:59.858Z,29.4
2018-11-06T08:07:01.751Z,29.5
2018-11-06T08:08:04.185Z,29.6
2018-11-06T08:09:06.340Z,29.6
2018-11-06T08:10:08.492Z,29.6
2018-11-06T08:11:10.654Z,29.4
2018-11-06T08:12:13.086Z,29.4
2018-11-06T08:13:15.511Z,29.5
2018-11-06T08:14:17.391Z,29.5
2018-11-06T08:15:19.029Z,29.6
2018-11-06T08:16:21.196Z,29.5
2018-11-06T08:17:23.329Z,29.5
2018-11-06T08:18:25.760Z,29.6
2018-11-06T08:19:27.922Z,29.5
2018-11-06T08:20:30.402Z,29.6
2018-11-06T08:21:33.254Z,29.4
2018-11-06T08:22:35.698Z,29.7
2018-11-06T08:23:37.359Z,29.6
2018-11-06T08:24:39.323Z,29.6
2018-11-06T08:25:41.492Z,29.4
2018-11-06T08:26:43.642Z,29.6
2018-11-06T08:27:45.913Z,29.4
2018-11-06T08:28:48.364Z,29.6
2018-11-06T08:29:50.508Z,29.6
2018-11-06T08:30:52.959Z,29.6
2018-11-06T08:31:57.293Z,29.8
2018-11-06T08:33:01.482Z,29.4
2018-11-06T08:34:03.813Z,29.6
2018-11-06T08:35:05.974Z,29.4
2018-11-06T08:36:07.850Z,29.4
2018-11-06T08:37:09.827Z,29.5
2018-11-06T08:38:12.675Z,29.4
2018-11-06T08:39:15.110Z,29.6
2018-11-06T08:40:17.266Z,29.5
2018-11-06T08:41:19.714Z,29.4
2018-11-06T08:42:22.194Z,29.4
2018-11-06T08:43:24.531Z,29.6
2018-11-06T08:44:26.990Z,29.4
2018-11-06T08:45:29.146Z,29.5
2018-11-06T08:46:31.578Z,29.5
2018-11-06T08:47:33.730Z,29.5
2018-11-06T08:48:35.893Z,29.7
2018-11-06T08:49:37.761Z,29.5
2018-11-06T08:50:40.203Z,29.4
2018-11-06T08:51:42.629Z,29.4
2018-11-06T08:52:45.061Z,29.6
2018-11-06T08:53:47.494Z,29.5
2018-11-06T08:54:49.651Z,29.4
2018-11-06T08:55:51.788Z,29.3
2018-11-06T08:56:53.687Z,29.7
2018-11-06T08:57:56.124Z,29.5
2018-11-06T08:58:58.567Z,29.5
2018-11-06T09:00:00.727Z,29.2
2018-11-06T09:01:02.897Z,29.4
2018-11-06T09:02:04.241Z,29.4
2018-11-06T09:03:06.672Z,29.2
2018-11-06T09:04:08.837Z,29.5
2018-11-06T09:05:11.267Z,29.7
2018-11-06T09:06:13.423Z,29.4
2018-11-06T09:07:15.591Z,29.5
2018-11-06T09:08:17.470Z,29.4
2018-11-06T09:09:19.631Z,29.6
2018-11-06T09:10:22.059Z,29.6
2018-11-06T09:11:24.222Z,29.6
2018-11-06T09:12:26.091Z,29.3
2018-11-06T09:13:28.233Z,29.4
2018-11-06T09:14:30.392Z,29.6
2018-11-06T09:15:32.267Z,29.4
2018-11-06T09:16:34.140Z,29.3
2018-11-06T09:17:36.299Z,29.5
2018-11-06T09:18:38.731Z,29.4
2018-11-06T09:19:40.893Z,29.5
2018-11-06T09:20:41.951Z,29.5
2018-11-06T09:21:44.385Z,29.5
2018-11-06T09:22:46.826Z,29.6
2018-11-06T09:23:48.956Z,29.6
2018-11-06T09:24:51.124Z,29.4
2018-11-06T09:25:52.720Z,29.5
2018-11-06T09:26:55.150Z,29.6
2018-11-06T09:27:57.580Z,29.4
2018-11-06T09:28:59.500Z,29.3
2018-11-06T09:30:01.350Z,29.5
2018-11-06T09:31:02.970Z,29.4
2018-11-06T09:32:05.978Z,29.4
2018-11-06T09:33:08.404Z,29.5
2018-11-06T09:34:10.580Z,29.4
2018-11-06T09:35:13.085Z,29.6
2018-11-06T09:36:15.560Z,29.5
2018-11-06T09:37:17.697Z,29.6
2018-11-06T09:38:20.211Z,29.4
2018-11-06T09:39:22.673Z,29.3
2018-11-06T09:40:24.545Z,29.7
2018-11-06T09:41:26.751Z,29.4
2018-11-06T09:42:29.647Z,29.5
2018-11-06T09:43:31.810Z,29.6
2018-11-06T09:44:34.253Z,29.5
2018-11-06T09:45:36.554Z,29.3
2018-11-06T09:46:39.178Z,29.3
2018-11-06T09:47:41.339Z,29.4
2018-11-06T09:48:43.045Z,29.4
2018-11-06T09:49:44.981Z,29.5
2018-11-06T09:50:46.866Z,29.4
2018-11-06T09:51:49.311Z,29.4
2018-11-06T09:52:51.676Z,29.6
2018-11-06T09:53:53.831Z,29.4
2018-11-06T09:54:55.992Z,29.5
2018-11-06T09:55:58.440Z,29.5
2018-11-06T09:57:00.343Z,29.5
2018-11-06T09:58:02.769Z,29.4
2018-11-06T09:59:04.926Z,29.3
2018-11-06T10:00:06.943Z,29.4
2018-11-06T10:01:09.609Z,29.3
2018-11-06T10:02:12.050Z,29.4
2018-11-06T10:03:14.484Z,29.6
2018-11-06T10:04:16.626Z,29.4
2018-11-06T10:05:18.794Z,29.5
2018-11-06T10:06:21.092Z,29.4
2018-11-06T10:07:24.634Z,29.7
2018-11-06T10:08:27.772Z,29.5
2018-11-06T10:09:30.202Z,29.3
2018-11-06T10:10:32.097Z,29.4
2018-11-06T10:11:34.529Z,29.3
2018-11-06T10:12:36.409Z,29.3
2018-11-06T10:13:38.845Z,29.4
2018-11-06T10:14:41.277Z,29.4
2018-11-06T10:15:43.735Z,29.4
2018-11-06T10:16:46.339Z,29.5
2018-11-06T10:17:48.491Z,29.3
2018-11-06T10:18:50.700Z,29.3
2018-11-06T10:19:53.127Z,29.4
2018-11-06T10:20:54.773Z,29.4
2018-11-06T10:21:56.928Z,29.5
2018-11-06T10:22:58.535Z,29.6
2018-11-06T10:24:00.969Z,29.4
2018-11-06T10:25:03.145Z,29.5
2018-11-06T10:26:05.288Z,29.6
2018-11-06T10:27:07.153Z,29.3
2018-11-06T10:28:09.323Z,29.6
2018-11-06T10:29:10.921Z,29.4
2018-11-06T10:30:13.104Z,29.5
2018-11-06T10:31:15.239Z,29.5
2018-11-06T10:32:17.111Z,29.4
2018-11-06T10:33:19.273Z,29.5
2018-11-06T10:34:21.719Z,29.3
2018-11-06T10:35:23.574Z,29.4
2018-11-06T10:36:25.469Z,29.3
2018-11-06T10:37:27.371Z,29.7
2018-11-06T10:38:29.262Z,29.5
2018-11-06T10:39:31.685Z,29.4
2018-11-06T10:40:33.290Z,29.5
2018-11-06T10:41:35.459Z,29.4
2018-11-06T10:42:37.619Z,29.4
2018-11-06T10:43:40.137Z,29.5
2018-11-06T10:44:42.686Z,29.3
2018-11-06T10:45:44.852Z,29.5
2018-11-06T10:46:47.004Z,29.5
2018-11-06T10:47:48.899Z,29.6
2018-11-06T10:48:51.066Z,29.5
2018-11-06T10:49:53.222Z,29.4
2018-11-06T10:50:55.106Z,29.5
2018-11-06T10:51:57.613Z,29.3
2018-11-06T10:53:00.286Z,29.4
2018-11-06T10:54:01.898Z,29.4
2018-11-06T10:55:04.059Z,29.5
2018-11-06T10:56:06.208Z,29.5
2018-11-06T10:57:08.068Z,29.6
2018-11-06T10:58:10.312Z,29.5
2018-11-06T10:59:12.509Z,29.3
2018-11-06T11:00:13.844Z,29.4
2018-11-06T11:01:16.293Z,29.5
2018-11-06T11:02:18.459Z,29.5
2018-11-06T11:03:20.349Z,29.6
2018-11-06T11:04:22.522Z,29.3
2018-11-06T11:05:24.687Z,29.5
2018-11-06T11:06:26.823Z,29.3
2018-11-06T11:07:28.948Z,29.6
2018-11-06T11:08:31.079Z,29.6
2018-11-06T11:09:33.251Z,29.3
2018-11-06T11:10:35.121Z,29.5
2018-11-06T11:11:36.720Z,29.4
2018-11-06T11:12:39.127Z,29.3
2018-11-06T11:13:42.522Z,29.6
2018-11-06T11:14:44.697Z,29.4
2018-11-06T11:15:46.865Z,29.4
2018-11-06T11:16:49.310Z,29.4
2018-11-06T11:17:51.740Z,29.7
2018-11-06T11:18:54.178Z,29.5
2018-11-06T11:19:56.686Z,29.5
2018-11-06T11:20:58.900Z,29.6
2018-11-06T11:22:00.779Z,29.5
2018-11-06T11:23:02.700Z,29.4
2018-11-06T11:24:04.834Z,29.5
2018-11-06T11:25:07.001Z,29.6
2018-11-06T11:26:09.436Z,29.4
2018-11-06T11:27:11.868Z,29.4
2018-11-06T11:28:14.024Z,29.7
2018-11-06T11:29:16.456Z,29.4
2018-11-06T11:30:18.343Z,29.4
2018-11-06T11:31:20.211Z,29.7
2018-11-06T11:32:22.688Z,29.4
2018-11-06T11:33:24.850Z,29.4
2018-11-06T11:34:27.003Z,29.4
2018-11-06T11:35:29.175Z,29.4
2018-11-06T11:36:31.326Z,29.4
2018-11-06T11:37:33.792Z,29.7
2018-11-06T11:38:35.813Z,29.5
2018-11-06T11:39:37.688Z,29.6
2018-11-06T11:40:40.131Z,29.6
2018-11-06T11:41:42.559Z,29.6
2018-11-06T11:42:44.449Z,29.6
2018-11-06T11:43:46.630Z,29.6
2018-11-06T11:44:48.275Z,29.5
2018-11-06T11:45:49.910Z,29.8
2018-11-06T11:46:52.836Z,29.7
2018-11-06T11:47:54.698Z,29.5
2018-11-06T11:48:56.869Z,29.5
2018-11-06T11:49:59.310Z,29.6
2018-11-06T11:51:01.477Z,29.5
2018-11-06T11:52:03.630Z,29.7
2018-11-06T11:53:05.511Z,29.5
2018-11-06T11:54:07.659Z,29.6
2018-11-06T11:55:10.110Z,29.5
2018-11-06T11:56:12.339Z,29.5
2018-11-06T11:57:14.497Z,29.4
2018-11-06T11:58:16.939Z,29.4
2018-11-06T11:59:19.281Z,29.5
2018-11-06T12:00:21.149Z,29.7
2018-11-06T12:01:23.311Z,29.7
2018-11-06T12:02:25.736Z,29.7
2018-11-06T12:03:27.916Z,29.5
2018-11-06T12:04:30.368Z,29.5
2018-11-06T12:05:32.247Z,29.6
2018-11-06T12:06:34.405Z,29.6
2018-11-06T12:07:36.574Z,29.5
2018-11-06T12:08:38.734Z,29.7
2018-11-06T12:09:41.173Z,29.5
2018-11-06T12:10:43.318Z,29.7
2018-11-06T12:11:45.740Z,29.5
2018-11-06T12:12:47.605Z,29.5
2018-11-06T12:13:49.762Z,29.3
2018-11-06T12:14:52.182Z,29.5
2018-11-06T12:15:54.608Z,29.4
2018-11-06T12:16:56.491Z,29.6
2018-11-06T12:17:58.432Z,29.5
2018-11-06T12:19:00.985Z,29.4
2018-11-06T12:20:03.407Z,29.4
2018-11-06T12:21:05.567Z,29.6
2018-11-06T12:22:07.994Z,29.4
2018-11-06T12:23:10.132Z,29.4
2018-11-06T12:24:12.402Z,29.5
2018-11-06T12:25:15.145Z,29.4
2018-11-06T12:26:19.590Z,29.6
2018-11-06T12:27:21.725Z,29.5
2018-11-06T12:28:23.622Z,29.5
2018-11-06T12:29:26.053Z,29.6
2018-11-06T12:30:28.185Z,29.6
2018-11-06T12:31:30.370Z,29.8
2018-11-06T12:32:32.548Z,29.7
2018-11-06T12:33:34.909Z,29.4
2018-11-06T12:34:37.079Z,29.5
2018-11-06T12:35:39.219Z,29.5
2018-11-06T12:36:41.199Z,29.7
2018-11-06T12:37:43.492Z,29.4
2018-11-06T12:38:45.905Z,29.7
2018-11-06T12:39:47.798Z,29.7
2018-11-06T12:40:50.230Z,29.4
2018-11-06T12:41:51.820Z,29.6
2018-11-06T12:42:54.287Z,29.7
2018-11-06T12:43:56.391Z,29.5
2018-11-06T12:44:58.558Z,29.5
2018-11-06T12:46:00.151Z,29.8
2018-11-06T12:47:02.314Z,29.6
2018-11-06T12:48:04.736Z,29.4
2018-11-06T12:49:06.593Z,29.6
2018-11-06T12:50:08.767Z,29.6
2018-11-06T12:51:11.179Z,29.4
2018-11-06T12:52:13.058Z,29.6
2018-11-06T12:53:15.188Z,29.7
2018-11-06T12:54:17.360Z,29.7
2018-11-06T12:55:19.236Z,29.6
2018-11-06T12:56:21.551Z,29.7
2018-11-06T12:57:23.424Z,29.7
2018-11-06T12:58:25.330Z,29.6
2018-11-06T12:59:27.195Z,29.6
2018-11-06T13:00:29.630Z,29.6
2018-11-06T13:01:32.060Z,29.5
2018-11-06T13:02:34.209Z,29.3
2018-11-06T13:03:35.894Z,29.4
2018-11-06T13:04:37.956Z,29.6
2018-11-06T13:05:39.836Z,29.4
2018-11-06T13:06:42.270Z,29.5
2018-11-06T13:07:44.714Z,29.5
2018-11-06T13:08:47.142Z,29.5
2018-11-06T13:09:49.303Z,29.3
2018-11-06T13:10:51.767Z,29.5
2018-11-06T13:11:53.933Z,29.8
2018-11-06T13:12:56.103Z,29.5
2018-11-06T13:13:57.994Z,29.4
2018-11-06T13:15:00.146Z,29.3
2018-11-06T13:16:02.374Z,29.4
2018-11-06T13:17:04.758Z,29.5
2018-11-06T13:18:07.592Z,29.5
2018-11-06T13:19:09.729Z,29.5
2018-11-06T13:20:11.894Z,29.5
2018-11-06T13:21:14.053Z,29.7
2018-11-06T13:22:16.209Z,29.6
2018-11-06T13:23:18.368Z,29.6
2018-11-06T13:24:20.530Z,29.5
2018-11-06T13:25:22.726Z,29.4
2018-11-06T13:26:25.000Z,29.5
2018-11-06T13:27:28.637Z,29.6
2018-11-06T13:28:30.791Z,29.6
2018-11-06T13:29:33.220Z,29.6
2018-11-06T13:30:35.434Z,29.4
2018-11-06T13:31:37.842Z,29.5
2018-11-06T13:32:39.726Z,29.6
2018-11-06T13:33:42.152Z,29.7
2018-11-06T13:34:44.018Z,29.7
2018-11-06T13:35:46.443Z,29.7
2018-11-06T13:36:48.304Z,29.6
2018-11-06T13:37:50.727Z,29.7
2018-11-06T13:38:53.168Z,29.4
2018-11-06T13:39:55.336Z,29.6
2018-11-06T13:40:57.498Z,29.5
2018-11-06T13:41:59.742Z,29.5
2018-11-06T13:43:01.507Z,29.4
2018-11-06T13:44:03.695Z,29.5
2018-11-06T13:45:06.111Z,29.6
2018-11-06T13:46:08.796Z,29.4
2018-11-06T13:47:10.688Z,29.6
2018-11-06T13:48:12.592Z,29.4
2018-11-06T13:49:15.011Z,29.5
2018-11-06T13:50:17.456Z,29.7
2018-11-06T13:51:19.628Z,29.5
2018-11-06T13:52:21.876Z,29.5
2018-11-06T13:53:24.044Z,29.5
2018-11-06T13:54:26.193Z,29.7
2018-11-06T13:55:28.617Z,29.6
2018-11-06T13:56:30.518Z,29.5